createdAt,value
2023-05-09T00:00:55.160Z,31.01
2023-05-09T00:01:55.187Z,37.11
2023-05-09T00:02:55.130Z,33.94
2023-05-09T00:03:55.166Z,36.90
2023-05-09T00:04:55.992Z,37.18
2023-05-09T00:05:55.057Z,36.96
2023-05-09T00:06:55.030Z,33.66
2023-05-09T00:07:55.004Z,34.55
2023-05-09T00:08:54.981Z,33.26
2023-05-09T00:09:54.975Z,35.34
2023-05-09T00:10:54.968Z,36.52
2023-05-09T00:11:55.004Z,33.54
2023-05-09T00:12:55.044Z,37.51
2023-05-09T00:13:55.172Z,36.16
2023-05-09T00:14:55.137Z,37.99
2023-05-09T00:15:55.171Z,34.78
2023-05-09T00:16:55.267Z,40.29
2023-05-09T00:17:55.189Z,39.50
2023-05-09T00:18:55.151Z,39.08
2023-05-09T00:19:55.177Z,32.31
2023-05-09T00:20:55.180Z,35.58
2023-05-09T00:21:55.191Z,37.31
2023-05-09T00:22:55.195Z,37.05
2023-05-09T00:23:55.183Z,36.22
2023-05-09T00:24:55.179Z,36.32
2023-05-09T00:25:55.182Z,37.55
2023-05-09T00:26:55.203Z,36.49
2023-05-09T00:27:55.217Z,34.63
2023-05-09T00:28:55.205Z,38.19
2023-05-09T00:29:55.316Z,35.76
2023-05-09T00:30:55.203Z,34.73
2023-05-09T00:31:55.243Z,36.75
2023-05-09T00:32:55.263Z,35.88
2023-05-09T00:33:55.228Z,36.10
2023-05-09T00:34:55.228Z,36.03
2023-05-09T00:35:55.250Z,34.40
2023-05-09T00:36:55.252Z,33.63
2023-05-09T00:37:55.245Z,32.50
2023-05-09T00:38:55.248Z,31.91
2023-05-09T00:39:55.253Z,31.98
2023-05-09T00:40:55.260Z,29.51
2023-05-09T00:41:55.276Z,32.99
2023-05-09T00:42:55.291Z,35.08
2023-05-09T00:43:55.262Z,35.17
2023-05-09T00:44:55.261Z,34.08
2023-05-09T00:45:55.353Z,35.66
2023-05-09T00:46:55.193Z,30.28
2023-05-09T00:47:55.198Z,34.11
2023-05-09T00:48:55.187Z,30.91
2023-05-09T00:49:55.131Z,33.76
2023-05-09T00:50:55.129Z,33.16
2023-05-09T00:51:55.101Z,31.49
2023-05-09T00:52:55.074Z,32.08
2023-05-09T00:53:55.065Z,33.98
2023-05-09T00:54:55.044Z,32.80
2023-05-09T00:55:55.033Z,32.59
2023-05-09T00:56:55.042Z,27.14
2023-05-09T00:57:54.992Z,31.61
2023-05-09T00:58:54.973Z,29.81
2023-05-09T00:59:54.962Z,31.13
2023-05-09T01:00:54.939Z,29.64
2023-05-09T01:01:55.089Z,31.14
2023-05-09T01:02:55.002Z,31.44
2023-05-09T01:03:54.971Z,32.87
2023-05-09T01:04:54.975Z,35.03
2023-05-09T01:05:54.991Z,31.33
2023-05-09T01:06:54.996Z,33.03
2023-05-09T01:07:55.017Z,34.21
2023-05-09T01:08:55.036Z,27.53
2023-05-09T01:09:55.023Z,26.15
2023-05-09T01:10:55.060Z,28.51
2023-05-09T01:11:55.059Z,27.30
2023-05-09T01:12:55.118Z,31.83
2023-05-09T01:13:55.074Z,31.11
2023-05-09T01:14:55.105Z,29.69
2023-05-09T01:15:55.232Z,26.13
2023-05-09T01:16:55.117Z,29.60
2023-05-09T01:17:55.222Z,29.65
2023-05-09T01:18:55.133Z,28.49
2023-05-09T01:19:55.154Z,27.81
2023-05-09T01:20:55.157Z,25.00
2023-05-09T01:21:55.160Z,27.14
2023-05-09T01:22:55.191Z,27.77
2023-05-09T01:23:55.201Z,29.25
2023-05-09T01:24:55.227Z,31.70
2023-05-09T01:25:55.214Z,27.96
2023-05-09T01:26:55.226Z,28.98
2023-05-09T01:27:55.263Z,29.05
2023-05-09T01:28:55.264Z,28.77
2023-05-09T01:29:55.268Z,27.62
2023-05-09T01:30:55.288Z,25.00
2023-05-09T01:31:55.307Z,28.99
2023-05-09T01:32:55.403Z,27.20
2023-05-09T01:33:55.398Z,26.08
2023-05-09T01:34:55.311Z,27.40
2023-05-09T01:35:55.346Z,27.48
2023-05-09T01:36:55.340Z,29.20
2023-05-09T01:37:55.341Z,28.31
2023-05-09T01:38:55.353Z,27.33
2023-05-09T01:39:55.382Z,26.89
2023-05-09T01:40:55.390Z,27.82
2023-05-09T01:41:55.395Z,28.67
2023-05-09T01:42:55.427Z,31.62
2023-05-09T01:43:55.482Z,28.27
2023-05-09T01:44:55.456Z,29.75
2023-05-09T01:45:55.467Z,28.50
2023-05-09T01:46:55.567Z,27.02
2023-05-09T01:47:55.532Z,28.06
2023-05-09T01:48:55.500Z,26.90
2023-05-09T01:49:55.650Z,28.40
2023-05-09T01:50:55.552Z,27.59
2023-05-09T01:51:55.517Z,27.87
2023-05-09T01:52:55.489Z,28.00
2023-05-09T01:53:55.488Z,27.89
2023-05-09T01:54:55.450Z,28.40
2023-05-09T01:55:55.419Z,27.83
2023-05-09T01:56:55.408Z,28.78
2023-05-09T01:57:55.383Z,32.60
2023-05-09T01:58:55.374Z,30.94
2023-05-09T01:59:55.342Z,30.32
2023-05-09T02:00:55.324Z,31.64
2023-05-09T02:01:55.377Z,31.78
2023-05-09T02:02:55.482Z,31.65
2023-05-09T02:03:55.286Z,31.48
2023-05-09T02:04:55.236Z,29.01
2023-05-09T02:05:55.319Z,27.38
2023-05-09T02:06:55.193Z,25.00
2023-05-09T02:07:55.169Z,27.83
2023-05-09T02:08:55.154Z,32.13
2023-05-09T02:09:55.144Z,32.35
2023-05-09T02:10:55.125Z,30.70
2023-05-09T02:11:55.118Z,32.98
2023-05-09T02:12:55.198Z,31.02
2023-05-09T02:13:55.070Z,31.23
2023-05-09T02:14:55.057Z,32.12
2023-05-09T02:15:55.036Z,31.94
2023-05-09T02:16:55.125Z,33.94
2023-05-09T02:17:55.021Z,34.84
2023-05-09T02:18:54.976Z,33.45
2023-05-09T02:19:54.956Z,33.52
2023-05-09T02:20:54.957Z,33.71
2023-05-09T02:21:55.024Z,35.51
2023-05-09T02:22:54.880Z,34.87
2023-05-09T02:23:54.867Z,37.33
2023-05-09T02:24:54.896Z,38.10
2023-05-09T02:25:54.846Z,39.37
2023-05-09T02:26:54.814Z,37.26
2023-05-09T02:27:54.807Z,39.21
2023-05-09T02:28:54.815Z,37.54
2023-05-09T02:29:54.855Z,38.54
2023-05-09T02:30:54.857Z,37.48
2023-05-09T02:31:54.897Z,41.50
2023-05-09T02:32:54.885Z,41.52
2023-05-09T02:33:54.846Z,40.31
2023-05-09T02:34:54.813Z,41.98
2023-05-09T02:35:54.794Z,41.77
2023-05-09T02:36:54.793Z,41.65
2023-05-09T02:37:54.845Z,41.38
2023-05-09T02:38:54.737Z,40.34
2023-05-09T02:39:54.742Z,42.08
2023-05-09T02:40:54.716Z,45.49
2023-05-09T02:41:54.700Z,42.81
2023-05-09T02:42:54.699Z,44.60
2023-05-09T02:43:54.666Z,44.13
2023-05-09T02:44:54.643Z,45.09
2023-05-09T02:45:54.657Z,45.28
2023-05-09T02:46:54.622Z,45.39
2023-05-09T02:47:54.640Z,45.36
2023-05-09T02:48:54.594Z,45.36
2023-05-09T02:49:54.578Z,46.02
2023-05-09T02:50:54.577Z,47.87
2023-05-09T02:51:54.557Z,46.61
2023-05-09T02:52:54.548Z,50.79
2023-05-09T02:53:54.603Z,51.38
2023-05-09T02:54:54.507Z,51.96
2023-05-09T02:55:54.493Z,52.69
2023-05-09T02:56:54.488Z,54.79
2023-05-09T02:58:05.359Z,56.57
2023-05-09T02:58:54.437Z,56.72
2023-05-09T02:59:54.435Z,56.94
2023-05-09T03:00:54.425Z,56.83
2023-05-09T03:01:54.491Z,57.51
2023-05-09T03:02:54.453Z,58.49
2023-05-09T03:03:54.462Z,61.09
2023-05-09T03:04:54.331Z,61.02
2023-05-09T03:05:54.315Z,60.02
2023-05-09T03:06:54.319Z,59.75
2023-05-09T03:07:54.283Z,59.57
2023-05-09T03:08:54.300Z,57.34
2023-05-09T03:09:54.353Z,61.23
2023-05-09T03:10:54.304Z,60.51
2023-05-09T03:11:54.320Z,57.77
2023-05-09T03:12:54.351Z,59.24
2023-05-09T03:13:54.371Z,57.29
2023-05-09T03:14:54.366Z,61.88
2023-05-09T03:15:54.397Z,58.52
2023-05-09T03:16:54.380Z,60.77
2023-05-09T03:17:54.437Z,60.47
2023-05-09T03:18:54.409Z,64.63
2023-05-09T03:19:54.453Z,63.27
2023-05-09T03:20:54.438Z,61.95
2023-05-09T03:21:54.448Z,60.77
2023-05-09T03:22:54.468Z,59.59
2023-05-09T03:23:54.479Z,63.13
2023-05-09T03:24:54.517Z,61.55
2023-05-09T03:25:54.612Z,59.42
2023-05-09T03:26:54.541Z,58.74
2023-05-09T03:27:54.566Z,57.73
2023-05-09T03:28:54.578Z,62.08
2023-05-09T03:29:54.589Z,60.84
2023-05-09T03:30:54.622Z,62.58
2023-05-09T03:31:54.657Z,63.46
2023-05-09T03:32:54.699Z,60.51
2023-05-09T03:33:54.666Z,58.24
2023-05-09T03:34:54.703Z,59.48
2023-05-09T03:35:54.691Z,60.29
2023-05-09T03:36:54.714Z,58.79
2023-05-09T03:37:54.743Z,62.31
2023-05-09T03:38:54.777Z,59.95
2023-05-09T03:39:54.795Z,60.39
2023-05-09T03:40:54.813Z,63.66
2023-05-09T03:41:54.918Z,65.78
2023-05-09T03:42:54.843Z,65.84
2023-05-09T03:43:54.856Z,64.59
2023-05-09T03:44:54.904Z,66.30
2023-05-09T03:45:54.905Z,66.86
2023-05-09T03:46:55.032Z,65.41
2023-05-09T03:47:54.977Z,62.84
2023-05-09T03:48:54.961Z,64.75
2023-05-09T03:49:54.981Z,66.50
2023-05-09T03:50:54.981Z,66.32
2023-05-09T03:51:54.979Z,66.57
2023-05-09T03:52:54.952Z,66.48
2023-05-09T03:53:54.935Z,68.02
2023-05-09T03:54:54.922Z,66.72
2023-05-09T03:55:54.892Z,67.55
2023-05-09T03:56:54.874Z,67.30
2023-05-09T03:57:54.944Z,69.35
2023-05-09T03:58:54.848Z,69.61
2023-05-09T03:59:54.814Z,67.80
2023-05-09T04:00:54.794Z,70.55
2023-05-09T04:01:54.793Z,67.05
2023-05-09T04:02:54.811Z,70.10
2023-05-09T04:03:54.821Z,68.54
2023-05-09T04:04:54.738Z,68.81
2023-05-09T04:05:54.671Z,68.96
2023-05-09T04:06:54.653Z,69.50
2023-05-09T04:07:54.633Z,70.84
2023-05-09T04:08:54.620Z,72.07
2023-05-09T04:09:54.592Z,71.32
2023-05-09T04:10:54.588Z,71.22
2023-05-09T04:11:54.565Z,76.10
2023-05-09T04:12:54.575Z,70.78
2023-05-09T04:13:54.618Z,74.44
2023-05-09T04:14:54.503Z,73.05
2023-05-09T04:15:54.493Z,72.17
2023-05-09T04:16:54.489Z,70.78
2023-05-09T04:17:54.594Z,76.26
2023-05-09T04:18:54.440Z,71.02
2023-05-09T04:19:54.459Z,69.47
2023-05-09T04:20:54.475Z,73.93
2023-05-09T04:21:54.500Z,77.11
2023-05-09T04:22:54.518Z,72.28
2023-05-09T04:23:54.513Z,75.61
2023-05-09T04:24:54.537Z,73.80
2023-05-09T04:25:54.549Z,75.81
2023-05-09T04:26:54.575Z,73.26
2023-05-09T04:27:54.569Z,73.74
2023-05-09T04:28:54.579Z,76.44
2023-05-09T04:29:54.700Z,75.79
2023-05-09T04:30:54.771Z,75.34
2023-05-09T04:31:54.783Z,75.69
2023-05-09T04:32:54.675Z,76.35
2023-05-09T04:33:54.696Z,78.40
2023-05-09T04:34:54.694Z,78.14
2023-05-09T04:35:54.720Z,73.38
2023-05-09T04:36:54.741Z,80.61
2023-05-09T04:37:54.759Z,80.32
2023-05-09T04:38:54.793Z,77.23
2023-05-09T04:39:54.837Z,85.89
2023-05-09T04:40:54.868Z,84.20
2023-05-09T04:41:54.893Z,82.92
2023-05-09T04:42:54.909Z,79.96
2023-05-09T04:43:54.939Z,81.04
2023-05-09T04:44:54.943Z,82.38
2023-05-09T04:45:55.105Z,81.52
2023-05-09T04:46:54.998Z,83.47
2023-05-09T04:47:55.069Z,81.56
2023-05-09T04:48:55.016Z,80.67
2023-05-09T04:49:55.044Z,83.92
2023-05-09T04:50:55.074Z,81.55
2023-05-09T04:51:55.066Z,82.93
2023-05-09T04:52:55.095Z,84.21
2023-05-09T04:53:55.114Z,87.07
2023-05-09T04:54:55.134Z,80.89
2023-05-09T04:55:55.160Z,82.47
2023-05-09T04:57:55.176Z,82.85
2023-05-09T04:58:55.216Z,83.47
2023-05-09T04:59:55.214Z,81.80
2023-05-09T05:00:55.226Z,83.76
2023-05-09T05:01:55.367Z,81.57
2023-05-09T05:02:55.313Z,78.52
2023-05-09T05:03:55.278Z,82.82
2023-05-09T05:05:02.913Z,81.61
2023-05-09T05:05:56.298Z,81.81
2023-05-09T05:06:55.259Z,82.03
2023-05-09T05:07:55.272Z,82.02
2023-05-09T05:08:55.221Z,82.64
2023-05-09T05:09:55.222Z,80.73
2023-05-09T05:10:55.180Z,75.31
2023-05-09T05:12:00.741Z,76.06
2023-05-09T05:12:56.226Z,76.31
2023-05-09T05:13:55.127Z,77.05
2023-05-09T05:14:55.112Z,77.19
2023-05-09T05:15:55.114Z,77.63
2023-05-09T05:16:55.072Z,74.56
2023-05-09T05:17:55.202Z,74.91
2023-05-09T05:18:55.034Z,76.63
2023-05-09T05:19:55.024Z,75.73
2023-05-09T05:20:55.049Z,75.92
2023-05-09T05:21:54.992Z,75.21
2023-05-09T05:22:55.008Z,73.79
2023-05-09T05:23:54.952Z,75.36
2023-05-09T05:24:54.970Z,72.84
2023-05-09T05:25:54.945Z,73.16
2023-05-09T05:26:54.927Z,73.13
2023-05-09T05:27:54.910Z,73.55
2023-05-09T05:28:54.881Z,74.03
2023-05-09T05:29:54.885Z,73.04
2023-05-09T05:30:54.869Z,73.56
2023-05-09T05:31:54.875Z,74.67
2023-05-09T05:32:54.861Z,74.64
2023-05-09T05:33:54.892Z,75.32
2023-05-09T05:34:54.798Z,74.62
2023-05-09T05:35:54.765Z,94.20
2023-05-09T05:36:54.788Z,106.50
2023-05-09T05:37:54.732Z,122.31
2023-05-09T05:38:54.716Z,142.67
2023-05-09T05:39:54.698Z,162.93
2023-05-09T05:40:54.693Z,177.31
2023-05-09T05:41:54.659Z,185.52
2023-05-09T05:42:54.630Z,193.79
2023-05-09T05:43:54.688Z,194.11
2023-05-09T05:44:54.593Z,195.77
2023-05-09T05:45:54.597Z,198.41
2023-05-09T05:46:54.533Z,204.80
2023-05-09T05:47:54.519Z,211.38
2023-05-09T05:48:54.471Z,213.81
2023-05-09T05:49:54.545Z,215.14
2023-05-09T05:50:54.454Z,216.53
2023-05-09T05:51:54.411Z,213.55
2023-05-09T05:52:54.377Z,208.04
2023-05-09T05:53:54.352Z,186.40
2023-05-09T05:54:54.337Z,179.09
2023-05-09T05:55:54.308Z,158.50
2023-05-09T05:56:54.288Z,142.93
2023-05-09T05:57:54.282Z,117.50
2023-05-09T05:58:54.257Z,107.93
2023-05-09T05:59:54.226Z,107.93
2023-05-09T06:00:54.249Z,109.48
2023-05-09T06:01:54.239Z,120.24
2023-05-09T06:02:54.320Z,147.72
2023-05-09T06:03:54.273Z,176.95
2023-05-09T06:04:55.918Z,161.23
2023-05-09T06:05:54.278Z,161.70
2023-05-09T06:06:54.095Z,168.66
2023-05-09T06:07:54.075Z,213.89
2023-05-09T06:08:54.043Z,212.05
2023-05-09T06:09:54.043Z,202.74
2023-05-09T06:10:54.001Z,203.58
2023-05-09T06:11:54.030Z,204.07
2023-05-09T06:12:53.990Z,204.14
2023-05-09T06:13:53.950Z,205.08
2023-05-09T06:14:53.915Z,204.14
2023-05-09T06:15:54.258Z,197.27
2023-05-09T06:16:53.952Z,199.32
2023-05-09T06:17:53.886Z,208.27
2023-05-09T06:18:55.946Z,225.50
2023-05-09T06:19:53.813Z,228.49
2023-05-09T06:20:53.811Z,208.88
2023-05-09T06:21:53.869Z,195.66
2023-05-09T06:22:53.829Z,201.16
2023-05-09T06:24:53.741Z,195.70
2023-05-09T06:25:53.711Z,196.06
2023-05-09T06:26:53.685Z,193.85
2023-05-09T06:27:54.191Z,197.64
2023-05-09T06:28:53.655Z,202.20
2023-05-09T06:29:53.639Z,220.93
2023-05-09T06:30:53.597Z,218.53
2023-05-09T06:31:53.728Z,213.59
2023-05-09T06:32:53.646Z,209.20
2023-05-09T06:33:53.539Z,215.42
2023-05-09T06:34:53.543Z,211.92
2023-05-09T06:35:53.568Z,215.94
2023-05-09T06:36:53.480Z,191.36
2023-05-09T06:37:53.580Z,173.74
2023-05-09T06:38:53.451Z,162.39
2023-05-09T06:39:53.434Z,179.37
2023-05-09T06:40:53.410Z,191.77
2023-05-09T06:41:53.379Z,199.47
2023-05-09T06:42:53.356Z,220.37
2023-05-09T06:43:53.352Z,242.00
2023-05-09T06:44:53.329Z,248.67
2023-05-09T06:45:53.304Z,250.00
2023-05-09T06:46:53.285Z,247.64
2023-05-09T06:47:53.267Z,248.00
2023-05-09T06:48:53.222Z,249.56
2023-05-09T06:49:53.213Z,249.82
2023-05-09T06:50:53.198Z,248.84
2023-05-09T06:51:53.154Z,239.91
2023-05-09T06:52:53.188Z,229.59
2023-05-09T06:53:53.196Z,207.45
2023-05-09T06:54:53.061Z,167.74
2023-05-09T06:55:53.066Z,150.30
2023-05-09T06:56:53.016Z,129.05
2023-05-09T06:57:52.988Z,115.14
2023-05-09T06:58:53.010Z,115.45
2023-05-09T06:59:52.935Z,118.86
2023-05-09T07:00:52.916Z,126.88
2023-05-09T07:01:52.921Z,133.25
2023-05-09T07:02:52.940Z,117.65
2023-05-09T07:03:52.838Z,135.88
2023-05-09T07:04:52.845Z,144.21
2023-05-09T07:05:52.780Z,158.35
2023-05-09T07:06:52.787Z,170.15
2023-05-09T07:07:52.749Z,179.87
2023-05-09T07:08:52.715Z,180.21
2023-05-09T07:09:55.273Z,180.46
2023-05-09T07:10:53.676Z,180.74
2023-05-09T07:11:52.647Z,184.10
2023-05-09T07:12:52.697Z,190.70
2023-05-09T07:13:52.594Z,201.48
2023-05-09T07:14:52.546Z,219.92
2023-05-09T07:15:52.528Z,181.37
2023-05-09T07:16:52.611Z,186.52
2023-05-09T07:17:52.509Z,193.95
2023-05-09T07:18:52.452Z,206.04
2023-05-09T07:19:52.446Z,223.13
2023-05-09T07:20:52.391Z,226.86
2023-05-09T07:21:52.380Z,229.69
2023-05-09T07:22:52.388Z,225.07
2023-05-09T07:23:52.387Z,221.72
2023-05-09T07:24:52.310Z,223.93
2023-05-09T07:25:52.377Z,225.90
2023-05-09T07:26:52.209Z,224.22
2023-05-09T07:27:52.260Z,225.33
2023-05-09T07:28:52.159Z,227.17
2023-05-09T07:29:52.130Z,224.64
2023-05-09T07:30:52.094Z,226.23
2023-05-09T07:31:52.127Z,226.44
2023-05-09T07:32:52.222Z,226.00
2023-05-09T07:33:52.018Z,227.94
2023-05-09T07:34:52.168Z,228.61
2023-05-09T07:35:51.926Z,231.65
2023-05-09T07:36:51.938Z,232.89
2023-05-09T07:37:51.862Z,223.66
2023-05-09T07:38:51.928Z,228.89
2023-05-09T07:39:51.787Z,232.40
2023-05-09T07:40:51.749Z,232.63
2023-05-09T07:41:51.729Z,233.55
2023-05-09T07:42:51.671Z,234.30
2023-05-09T07:43:51.636Z,237.99
2023-05-09T07:44:51.629Z,239.95
2023-05-09T07:45:51.598Z,241.81
2023-05-09T07:46:51.529Z,238.53
2023-05-09T07:47:51.544Z,232.46
2023-05-09T07:48:51.486Z,230.50
2023-05-09T07:49:51.534Z,229.81
2023-05-09T07:50:51.557Z,228.92
2023-05-09T07:51:51.514Z,229.10
2023-05-09T07:52:51.477Z,229.90
2023-05-09T07:53:51.495Z,230.13
2023-05-09T07:54:51.421Z,231.03
2023-05-09T07:55:51.419Z,235.89
2023-05-09T07:56:51.360Z,236.11
2023-05-09T07:57:51.399Z,236.89
2023-05-09T07:58:52.146Z,235.38
2023-05-09T07:59:51.276Z,235.01
2023-05-09T08:00:51.269Z,229.30
2023-05-09T08:01:51.401Z,227.45
2023-05-09T08:02:51.370Z,230.53
2023-05-09T08:03:51.366Z,231.10
2023-05-09T08:04:51.338Z,229.39
2023-05-09T08:05:51.372Z,229.80
2023-05-09T08:06:51.375Z,231.59
2023-05-09T08:07:51.321Z,231.72
2023-05-09T08:08:51.287Z,231.68
2023-05-09T08:09:51.266Z,229.05
2023-05-09T08:10:51.238Z,226.87
2023-05-09T08:11:51.182Z,218.33
2023-05-09T08:12:51.173Z,216.67
2023-05-09T08:13:51.224Z,219.51
2023-05-09T08:14:51.089Z,214.61
2023-05-09T08:15:51.138Z,209.27
2023-05-09T08:16:51.017Z,206.53
2023-05-09T08:17:51.025Z,203.28
2023-05-09T08:18:50.983Z,203.60
2023-05-09T08:19:50.953Z,203.85
2023-05-09T08:20:50.909Z,203.57
2023-05-09T08:21:50.870Z,201.46
2023-05-09T08:22:50.842Z,204.21
2023-05-09T08:23:50.821Z,205.87
2023-05-09T08:24:50.793Z,206.79
2023-05-09T08:25:50.746Z,201.64
2023-05-09T08:26:50.734Z,201.73
2023-05-09T08:27:53.003Z,201.39
2023-05-09T08:28:50.677Z,200.48
2023-05-09T08:29:50.781Z,197.12
2023-05-09T08:30:50.697Z,193.78
2023-05-09T08:31:50.709Z,201.43
2023-05-09T08:32:50.731Z,164.05
2023-05-09T08:33:50.749Z,43.74
2023-05-09T08:34:50.772Z,0.00
2023-05-09T08:35:50.746Z,0.00
2023-05-09T08:36:50.732Z,0.00
2023-05-09T08:37:50.702Z,0.00
2023-05-09T08:38:50.830Z,0.00
2023-05-09T08:39:50.690Z,0.00
2023-05-09T08:40:50.651Z,0.00
2023-05-09T08:41:50.624Z,0.00
2023-05-09T08:42:50.643Z,0.00
2023-05-09T08:43:50.711Z,0.00
2023-05-09T08:44:50.595Z,0.00
2023-05-09T08:45:50.666Z,0.00
2023-05-09T08:46:50.521Z,0.00
2023-05-09T08:47:50.523Z,0.00
2023-05-09T08:48:50.465Z,0.21
2023-05-09T08:49:50.485Z,27.49
2023-05-09T08:50:50.403Z,40.23
2023-05-09T08:51:50.381Z,43.64
2023-05-09T08:52:50.360Z,22.59
2023-05-09T08:53:50.334Z,6.30
2023-05-09T08:54:50.303Z,0.00
2023-05-09T08:55:50.350Z,0.00
2023-05-09T08:56:50.381Z,0.00
2023-05-09T08:57:50.350Z,0.00
2023-05-09T08:58:50.446Z,0.00
2023-05-09T08:59:50.269Z,0.00
2023-05-09T09:00:50.344Z,0.00
2023-05-09T09:01:50.376Z,0.00
2023-05-09T09:02:50.228Z,5.84
2023-05-09T09:03:50.172Z,25.55
2023-05-09T09:04:50.204Z,39.62
2023-05-09T09:05:50.120Z,50.78
2023-05-09T09:06:50.088Z,65.04
2023-05-09T09:07:50.048Z,73.48
2023-05-09T09:08:50.053Z,86.83
2023-05-09T09:09:50.062Z,97.85
2023-05-09T09:10:49.976Z,111.53
2023-05-09T09:11:49.950Z,112.06
2023-05-09T09:12:50.223Z,114.88
2023-05-09T09:13:49.889Z,120.85
2023-05-09T09:14:49.828Z,132.26
2023-05-09T09:15:49.821Z,149.06
2023-05-09T09:16:49.825Z,155.97
2023-05-09T09:17:49.895Z,160.82
2023-05-09T09:18:49.695Z,165.92
2023-05-09T09:19:49.799Z,171.36
2023-05-09T09:20:49.608Z,171.53
2023-05-09T09:21:49.599Z,171.65
2023-05-09T09:22:49.561Z,173.17
2023-05-09T09:23:49.523Z,176.53
2023-05-09T09:24:50.543Z,182.30
2023-05-09T09:25:49.558Z,191.18
2023-05-09T09:26:49.408Z,194.64
2023-05-09T09:27:49.351Z,197.12
2023-05-09T09:28:49.323Z,199.59
2023-05-09T09:29:49.334Z,200.49
2023-05-09T09:30:49.262Z,202.85
2023-05-09T09:31:49.240Z,203.76
2023-05-09T09:32:49.267Z,205.21
2023-05-09T09:33:49.364Z,192.09
2023-05-09T09:34:49.396Z,160.59
2023-05-09T09:35:49.292Z,122.64
2023-05-09T09:36:49.329Z,84.01
2023-05-09T09:37:49.364Z,60.48
2023-05-09T09:38:49.373Z,42.02
2023-05-09T09:39:49.397Z,26.95
2023-05-09T09:40:49.540Z,23.55
2023-05-09T09:41:49.475Z,28.16
2023-05-09T09:42:49.426Z,44.79
2023-05-09T09:43:49.445Z,62.50
2023-05-09T09:44:49.484Z,77.47
2023-05-09T09:45:49.532Z,91.92
2023-05-09T09:46:49.553Z,106.89
2023-05-09T09:47:49.542Z,107.16
2023-05-09T09:48:49.485Z,108.84
2023-05-09T09:49:49.559Z,109.40
2023-05-09T09:50:49.475Z,111.24
2023-05-09T09:51:49.415Z,115.18
2023-05-09T09:52:49.420Z,116.27
2023-05-09T09:53:49.352Z,119.68
2023-05-09T09:54:49.322Z,124.43
2023-05-09T09:55:49.516Z,129.88
2023-05-09T09:56:49.295Z,135.17
2023-05-09T09:57:49.225Z,139.68
2023-05-09T09:58:49.273Z,144.24
2023-05-09T09:59:49.289Z,149.53
2023-05-09T10:00:49.335Z,156.40
2023-05-09T10:01:49.351Z,160.65
2023-05-09T10:02:49.477Z,163.87
2023-05-09T10:03:49.398Z,168.90
2023-05-09T10:04:49.408Z,172.61
2023-05-09T10:05:49.539Z,174.15
2023-05-09T10:06:49.420Z,177.82
2023-05-09T10:07:49.441Z,181.81
2023-05-09T10:08:49.450Z,188.60
2023-05-09T10:09:49.454Z,191.70
2023-05-09T10:10:49.436Z,196.18
2023-05-09T10:11:49.419Z,198.92
2023-05-09T10:12:49.458Z,202.31
2023-05-09T10:13:49.451Z,203.12
2023-05-09T10:14:49.425Z,205.05
2023-05-09T10:15:53.447Z,208.44
2023-05-09T10:16:49.435Z,208.55
2023-05-09T10:17:49.462Z,209.07
2023-05-09T10:18:49.467Z,210.03
2023-05-09T10:19:49.324Z,209.63
2023-05-09T10:20:49.261Z,210.13
2023-05-09T10:21:49.319Z,210.68
2023-05-09T10:22:49.197Z,212.38
2023-05-09T10:23:49.177Z,212.84
2023-05-09T10:24:49.114Z,183.82
2023-05-09T10:25:49.063Z,141.36
2023-05-09T10:26:49.031Z,110.66
2023-05-09T10:27:49.012Z,95.47
2023-05-09T10:28:48.972Z,83.38
2023-05-09T10:29:48.931Z,74.23
2023-05-09T10:30:48.923Z,89.78
2023-05-09T10:31:48.877Z,101.68
2023-05-09T10:32:48.836Z,108.61
2023-05-09T10:33:48.810Z,113.81
2023-05-09T10:34:48.748Z,117.17
2023-05-09T10:35:48.703Z,117.30
2023-05-09T10:36:48.670Z,119.71
2023-05-09T10:37:48.633Z,127.45
2023-05-09T10:38:48.591Z,143.82
2023-05-09T10:39:48.566Z,169.45
2023-05-09T10:40:48.517Z,180.71
2023-05-09T10:41:48.481Z,184.88
2023-05-09T10:42:48.441Z,194.43
2023-05-09T10:43:48.436Z,198.30
2023-05-09T10:44:48.378Z,199.74
2023-05-09T10:45:48.346Z,201.31
2023-05-09T10:46:48.334Z,202.14
2023-05-09T10:47:48.321Z,202.55
2023-05-09T10:48:48.360Z,210.56
2023-05-09T10:49:48.350Z,214.73
2023-05-09T10:50:48.350Z,212.24
2023-05-09T10:51:48.357Z,213.26
2023-05-09T10:52:48.366Z,215.19
2023-05-09T10:53:48.501Z,213.66
2023-05-09T10:54:48.390Z,211.95
2023-05-09T10:55:48.398Z,211.27
2023-05-09T10:56:48.403Z,214.62
2023-05-09T10:57:48.430Z,220.44
2023-05-09T10:58:48.434Z,217.87
2023-05-09T10:59:48.467Z,211.64
2023-05-09T11:00:48.465Z,210.30
2023-05-09T11:01:48.511Z,206.79
2023-05-09T11:02:48.626Z,203.72
2023-05-09T11:03:48.625Z,202.53
2023-05-09T11:04:48.778Z,202.17
2023-05-09T11:05:48.614Z,203.98
2023-05-09T11:06:48.631Z,205.93
2023-05-09T11:07:48.704Z,209.16
2023-05-09T11:08:48.690Z,213.34
2023-05-09T11:09:48.695Z,216.41
2023-05-09T11:10:48.703Z,218.68
2023-05-09T11:11:48.762Z,219.24
2023-05-09T11:12:48.761Z,216.91
2023-05-09T11:13:48.790Z,215.20
2023-05-09T11:14:48.819Z,214.27
2023-05-09T11:15:48.782Z,214.33
2023-05-09T11:16:48.724Z,214.62
2023-05-09T11:17:48.712Z,214.08
2023-05-09T11:18:48.606Z,211.73
2023-05-09T11:19:48.583Z,211.14
2023-05-09T11:20:48.550Z,213.50
2023-05-09T11:21:48.492Z,215.15
2023-05-09T11:22:48.469Z,212.40
2023-05-09T11:23:48.400Z,215.34
2023-05-09T11:24:48.428Z,214.62
2023-05-09T11:25:48.404Z,215.72
2023-05-09T11:26:48.316Z,216.29
2023-05-09T11:27:48.296Z,215.85
2023-05-09T11:28:48.315Z,214.64
2023-05-09T11:29:48.822Z,212.67
2023-05-09T11:30:48.349Z,209.78
2023-05-09T11:31:48.379Z,208.76
2023-05-09T11:32:48.444Z,208.45
2023-05-09T11:33:48.401Z,207.24
2023-05-09T11:34:48.411Z,207.88
2023-05-09T11:35:48.437Z,208.06
2023-05-09T11:36:48.409Z,206.15
2023-05-09T11:37:48.530Z,204.00
2023-05-09T11:38:48.480Z,201.98
2023-05-09T11:39:48.532Z,199.31
2023-05-09T11:40:48.473Z,198.84
2023-05-09T11:41:48.583Z,198.25
2023-05-09T11:42:48.519Z,198.15
2023-05-09T11:43:48.537Z,198.52
2023-05-09T11:44:48.546Z,198.20
2023-05-09T11:45:48.601Z,198.32
2023-05-09T11:46:48.596Z,194.99
2023-05-09T11:47:48.699Z,194.54
2023-05-09T11:48:48.617Z,193.62
2023-05-09T11:49:48.616Z,193.30
2023-05-09T11:50:48.640Z,193.46
2023-05-09T11:51:48.649Z,192.44
2023-05-09T11:52:48.649Z,190.84
2023-05-09T11:53:48.652Z,189.51
2023-05-09T11:54:48.692Z,189.08
2023-05-09T11:55:48.692Z,188.11
2023-05-09T11:56:48.707Z,187.04
2023-05-09T11:57:48.737Z,186.94
2023-05-09T11:58:48.694Z,184.46
2023-05-09T11:59:48.725Z,183.92
2023-05-09T12:00:48.734Z,183.28
2023-05-09T12:01:48.767Z,183.58
2023-05-09T12:02:48.827Z,182.80
2023-05-09T12:03:48.835Z,182.07
2023-05-09T12:04:48.802Z,181.57
2023-05-09T12:05:48.802Z,180.70
2023-05-09T12:06:48.840Z,180.55
2023-05-09T12:07:48.889Z,180.22
2023-05-09T12:08:48.883Z,179.47
2023-05-09T12:09:48.916Z,178.92
2023-05-09T12:10:48.892Z,177.85
2023-05-09T12:11:49.988Z,176.91
2023-05-09T12:12:49.115Z,175.56
2023-05-09T12:13:49.114Z,175.27
2023-05-09T12:14:49.025Z,176.19
2023-05-09T12:15:49.063Z,174.22
2023-05-09T12:16:48.998Z,173.35
2023-05-09T12:17:51.332Z,172.53
2023-05-09T12:18:48.963Z,173.31
2023-05-09T12:19:48.927Z,172.48
2023-05-09T12:20:48.898Z,171.58
2023-05-09T12:21:48.872Z,170.31
2023-05-09T12:22:48.832Z,169.20
2023-05-09T12:23:51.226Z,168.88
2023-05-09T12:24:48.771Z,168.95
2023-05-09T12:25:48.711Z,168.55
2023-05-09T12:26:48.668Z,167.46
2023-05-09T12:27:48.638Z,166.43
2023-05-09T12:28:48.608Z,167.61
2023-05-09T12:29:48.652Z,166.92
2023-05-09T12:30:48.519Z,166.42
2023-05-09T12:31:48.554Z,166.02
2023-05-09T12:32:48.439Z,165.80
2023-05-09T12:33:48.394Z,166.01
2023-05-09T12:34:48.368Z,166.62
2023-05-09T12:35:48.315Z,166.03
2023-05-09T12:36:48.264Z,165.27
2023-05-09T12:37:48.214Z,163.81
2023-05-09T12:38:48.202Z,162.64
2023-05-09T12:39:48.203Z,162.99
2023-05-09T12:40:48.218Z,163.79
2023-05-09T12:41:57.856Z,162.92
2023-05-09T12:42:49.207Z,162.96
2023-05-09T12:43:48.153Z,162.55